Solved

windows update does not finish

Posted on 2004-09-02
16
5,247 Views
Last Modified: 2010-05-18
Recently, while running Windows update on XP home edition, I would get to the screen "scanning for the latest version of update....normally I would then get the "Scan for updates" button.  Now it stops and it says Done in the bottom left hand corner.  I thought maybe, XP Sp2 would be the cure and I manually installed it with the same end result.  I found the Windows Update Log, I was hoping someone might be able to get a clue from it.  Help is appreciated.

2004-09-02      07:19:06-0400       716       98      Service Main starts
2004-09-02      07:19:14-0400       716       98      Using BatchFlushAge = 13675.
2004-09-02      07:19:14-0400       716       98      Using SamplingValue = 403.
2004-09-02      07:19:14-0400       716       98      Successfully loaded event namespace dictionary.
2004-09-02      07:19:19-0400       716       98      Successfully loaded client event namespace descriptor.
2004-09-02      07:19:19-0400       716       98      Successfully initialized local event logger. Events will be logged at C:\WINNT\SoftwareDistribution\ReportingEvents.log.
2004-09-02      07:19:20-0400       716       98      Successfully initialized NT event logger.
2004-09-02      07:19:21-0400       716       98      Successfully initialized event uploader 0.
2004-09-02      07:19:21-0400       716       98      Successfully initialized event uploader 1.
2004-09-02      07:19:22-0400       716       98      WU client with version 5.4.3790.2182 successfully initialized
2004-09-02      07:19:22-0400       716       98      Service status is now SERVICE_RUNNING
2004-09-02      07:20:07-0400       716       98      start delayed initialization of WU client
2004-09-02      07:20:10-0400       716      2d0      Service received connect notification
2004-09-02      07:20:17-0400      2152      870      Trying to make out of proc datastore active
2004-09-02      07:20:31-0400      2152      870      Out of proc datastore is now active
2004-09-02      07:20:50-0400      2152      870      Out of proc datastore is shutting down
2004-09-02      07:20:50-0400       716       98      WU client failed to load persisted download calls with error 0x80004002
2004-09-02      07:20:50-0400       716       98      Client Call Recorder finished delayed initialization
2004-09-02      07:20:52-0400      2152      870      Out of proc datastore is now inactive
2004-09-02      07:21:11-0400      2436      988      Trying to make out of proc datastore active
2004-09-02      07:21:21-0400      2436      988      Out of proc datastore is now active
2004-09-02      07:21:21-0400      2436      988      Out of proc datastore is shutting down
2004-09-02      07:21:21-0400       716       98      DM: GetSession failed with 0x80004002.
2004-09-02      07:21:23-0400       716       98      Setting next AU detection timeout to 2004-09-02 11:21:22
2004-09-02      07:21:26-0400      2436      988      Out of proc datastore is now inactive
2004-09-02      07:22:06-0400      2812      b00      Trying to make out of proc datastore active
2004-09-02      07:22:19-0400      2812      b00      Out of proc datastore is now active
2004-09-02      07:22:25-0400      2812      b00      Out of proc datastore is shutting down
2004-09-02      07:22:28-0400      2812      b00      Out of proc datastore is now inactive
2004-09-02      07:22:34-0400      3032      bdc      Trying to make out of proc datastore active
2004-09-02      07:22:37-0400      3032      bdc      Out of proc datastore is now active
2004-09-02      07:22:37-0400      3032      bdc      Out of proc datastore is shutting down
2004-09-02      07:22:37-0400       716       98      Failed to get session from datastore: 80004002
2004-09-02      07:22:37-0400       716       98      Failed to Unserialize from data store: 80004002
2004-09-02      07:22:37-0400       716       98      InitAUComponents Failed, will restart AU in 30 mins: 80004002
2004-09-02      07:22:38-0400       716       98      AU Restart required....
2004-09-02      07:22:39-0400      3032      bdc      Out of proc datastore is now inactive
2004-09-02      07:27:50-0400      1204      4e4      WUCheckForUpdatesAtShutdown failed, hr=80040154
2004-09-02      07:28:33-0400       716      2d0      Service received logoff notification
2004-09-02      07:28:33-0400       716       98      AU received event of 3
2004-09-02      07:28:33-0400       716       98      Received an event which can not be processed at this time
2004-09-02      07:28:41-0400       428      f68      WUAutoUpdateAtShutdown failed, hr=80040154
2004-09-02      07:28:51-0400       716      2d0      Service received SERVICE_CONTROL_SHUTDOWN control
2004-09-02      07:28:51-0400       716       98      Exiting Service Main
2004-09-02      07:28:54-0400       716       98      WUAUENG ServiceMain exits. Exit code is 0x240001
2004-09-02      07:33:06-0400      1396      578      Checking for different Redirector at: http://download.windowsupdate.com/msdownload/update/v5/redir/wuredir.cab
2004-09-02      07:33:07-0400      1396      578      WinInet: Server file is not newer.  Skipping download.
2004-09-02      07:33:07-0400      1396      578      Successfully refreshed Redirector cab.
2004-09-02      07:33:07-0400      1396      578      WinInet: Server file is not newer.  Skipping download.
2004-09-02      07:33:08-0400      1396      578      WinInet: Download speed is 65985 bytes/sec
2004-09-02      07:33:08-0400      1396      578      WinInet: Successfully downloaded http://v5.windowsupdate.microsoft.com/SelfUpdate/AU/x86/XP/en/wusetup.cab to file C:\WINNT\SoftwareDistribution\WebSetup\wusetup.cab
2004-09-02      07:33:08-0400      1396      578      Loading inf file C:\WINNT\SoftwareDistribution\WebSetup\wusetup.inf
2004-09-02      07:33:08-0400      1396      578      Section name: cdm: Index: 0
2004-09-02      07:33:08-0400      1396      578      Section name: iuengine: Index: 1
2004-09-02      07:33:08-0400      1396      578      Section name: wuapi: Index: 2
2004-09-02      07:33:08-0400      1396      578      Section name: wuauclt: Index: 3
2004-09-02      07:33:08-0400      1396      578      Section name: wuauclt1: Index: 4
2004-09-02      07:33:08-0400      1396      578      Section name: wuaucpl: Index: 5
2004-09-02      07:33:08-0400      1396      578      Section name: wuaueng_WebSetup: Index: 6
2004-09-02      07:33:08-0400      1396      578      Section name: wuaueng1: Index: 7
2004-09-02      07:33:08-0400      1396      578      Section name: wuauserv_WebSetup: Index: 8
2004-09-02      07:33:08-0400      1396      578      Section name: wucltui: Index: 9
2004-09-02      07:33:08-0400      1396      578      Section name: wups: Index: 10
2004-09-02      07:33:08-0400      1396      578      Section name: winhttp: Index: 11
2004-09-02      07:33:08-0400      1396      578      Required Version for binary C:\WINNT\system32\cdm.dll is: 5,5,3790,2182
2004-09-02      07:33:08-0400      1396      578      Binary: C:\WINNT\system32\cdm.dll: Target version: 5.5.3790.2182 Required: 5.5.3790.2182
2004-09-02      07:33:08-0400      1396      578      Required Version for binary C:\WINNT\system32\iuengine.dll is: 5,4,3790,2182
2004-09-02      07:33:08-0400      1396      578      Binary: C:\WINNT\system32\iuengine.dll: Target version: 5.4.3790.2182 Required: 5.4.3790.2182
2004-09-02      07:33:08-0400      1396      578      Required Version for binary C:\WINNT\system32\wuapi.dll is: 5,4,3790,2182
2004-09-02      07:33:08-0400      1396      578      Binary: C:\WINNT\system32\wuapi.dll: Target version: 5.4.3790.2182 Required: 5.4.3790.2182
2004-09-02      07:33:08-0400      1396      578      Required Version for binary C:\WINNT\system32\wuauclt.exe is: 5,4,3790,2182
2004-09-02      07:33:08-0400      1396      578      Binary: C:\WINNT\system32\wuauclt.exe: Target version: 5.4.3790.2182 Required: 5.4.3790.2182
2004-09-02      07:33:08-0400      1396      578      Required Version for binary C:\WINNT\system32\wuauclt1.exe is: 5,4,3790,2182
2004-09-02      07:33:08-0400      1396      578      Binary: C:\WINNT\system32\wuauclt1.exe: Target version: 5.4.3790.2182 Required: 5.4.3790.2182
2004-09-02      07:33:08-0400      1396      578      Required Version for binary C:\WINNT\system32\wuaucpl.cpl is: 5,4,3790,2182
2004-09-02      07:33:08-0400      1396      578      Binary: C:\WINNT\system32\wuaucpl.cpl: Target version: 5.4.3790.2182 Required: 5.4.3790.2182
2004-09-02      07:33:08-0400      1396      578      Required Version for binary C:\WINNT\system32\wuaueng.dll is: 5,4,3790,2182
2004-09-02      07:33:08-0400      1396      578      Binary: C:\WINNT\system32\wuaueng.dll: Target version: 5.4.3790.2182 Required: 5.4.3790.2182
2004-09-02      07:33:08-0400      1396      578      Required Version for binary C:\WINNT\system32\wuaueng1.dll is: 5,4,3790,2182
2004-09-02      07:33:08-0400      1396      578      Binary: C:\WINNT\system32\wuaueng1.dll: Target version: 5.4.3790.2182 Required: 5.4.3790.2182
2004-09-02      07:33:08-0400      1396      578      Required Version for binary C:\WINNT\system32\wucltui.dll is: 5,4,3790,2182
2004-09-02      07:33:08-0400      1396      578      Binary: C:\WINNT\system32\wucltui.dll: Target version: 5.4.3790.2182 Required: 5.4.3790.2182
2004-09-02      07:33:08-0400      1396      578      Required Version for binary C:\WINNT\system32\wups.dll is: 5,4,3790,2182
2004-09-02      07:33:08-0400      1396      578      Binary: C:\WINNT\system32\wups.dll: Target version: 5.4.3790.2182 Required: 5.4.3790.2182
2004-09-02      07:33:08-0400      1396      578      CreateObject for Microsoft.Update.AutoUpdate failed: error 0x800401f3
2004-09-02      07:33:08-0400      1396      578      CreateObject for Microsoft.Update.SystemInfo failed: error 0x800401f3
2004-09-02      07:38:38-0400      1396      698      Checking for different Redirector at: http://download.windowsupdate.com/msdownload/update/v5/redir/wuredir.cab
2004-09-02      07:38:38-0400      1396      698      WinInet: Server file is not newer.  Skipping download.
2004-09-02      07:38:38-0400      1396      698      Successfully refreshed Redirector cab.
2004-09-02      07:38:38-0400      1396      698      WinInet: Server file is not newer.  Skipping download.
2004-09-02      07:38:39-0400      1396      698      WinInet: Download speed is 66390 bytes/sec
2004-09-02      07:38:39-0400      1396      698      WinInet: Successfully downloaded http://v5.windowsupdate.microsoft.com/SelfUpdate/AU/x86/XP/en/wusetup.cab to file C:\WINNT\SoftwareDistribution\WebSetup\wusetup.cab
2004-09-02      07:38:39-0400      1396      698      Loading inf file C:\WINNT\SoftwareDistribution\WebSetup\wusetup.inf
2004-09-02      07:38:39-0400      1396      698      Section name: cdm: Index: 0
2004-09-02      07:38:39-0400      1396      698      Section name: iuengine: Index: 1
2004-09-02      07:38:39-0400      1396      698      Section name: wuapi: Index: 2
2004-09-02      07:38:39-0400      1396      698      Section name: wuauclt: Index: 3
2004-09-02      07:38:39-0400      1396      698      Section name: wuauclt1: Index: 4
2004-09-02      07:38:39-0400      1396      698      Section name: wuaucpl: Index: 5
2004-09-02      07:38:39-0400      1396      698      Section name: wuaueng_WebSetup: Index: 6
2004-09-02      07:38:39-0400      1396      698      Section name: wuaueng1: Index: 7
2004-09-02      07:38:39-0400      1396      698      Section name: wuauserv_WebSetup: Index: 8
2004-09-02      07:38:39-0400      1396      698      Section name: wucltui: Index: 9
2004-09-02      07:38:39-0400      1396      698      Section name: wups: Index: 10
2004-09-02      07:38:39-0400      1396      698      Section name: winhttp: Index: 11
2004-09-02      07:38:39-0400      1396      698      Required Version for binary C:\WINNT\system32\cdm.dll is: 5,5,3790,2182
2004-09-02      07:38:39-0400      1396      698      Binary: C:\WINNT\system32\cdm.dll: Target version: 5.5.3790.2182 Required: 5.5.3790.2182
2004-09-02      07:38:39-0400      1396      698      Required Version for binary C:\WINNT\system32\iuengine.dll is: 5,4,3790,2182
2004-09-02      07:38:39-0400      1396      698      Binary: C:\WINNT\system32\iuengine.dll: Target version: 5.4.3790.2182 Required: 5.4.3790.2182
2004-09-02      07:38:39-0400      1396      698      Required Version for binary C:\WINNT\system32\wuapi.dll is: 5,4,3790,2182
2004-09-02      07:38:39-0400      1396      698      Binary: C:\WINNT\system32\wuapi.dll: Target version: 5.4.3790.2182 Required: 5.4.3790.2182
2004-09-02      07:38:39-0400      1396      698      Required Version for binary C:\WINNT\system32\wuauclt.exe is: 5,4,3790,2182
2004-09-02      07:38:39-0400      1396      698      Binary: C:\WINNT\system32\wuauclt.exe: Target version: 5.4.3790.2182 Required: 5.4.3790.2182
2004-09-02      07:38:39-0400      1396      698      Required Version for binary C:\WINNT\system32\wuauclt1.exe is: 5,4,3790,2182
2004-09-02      07:38:39-0400      1396      698      Binary: C:\WINNT\system32\wuauclt1.exe: Target version: 5.4.3790.2182 Required: 5.4.3790.2182
2004-09-02      07:38:39-0400      1396      698      Required Version for binary C:\WINNT\system32\wuaucpl.cpl is: 5,4,3790,2182
2004-09-02      07:38:39-0400      1396      698      Binary: C:\WINNT\system32\wuaucpl.cpl: Target version: 5.4.3790.2182 Required: 5.4.3790.2182
2004-09-02      07:38:39-0400      1396      698      Required Version for binary C:\WINNT\system32\wuaueng.dll is: 5,4,3790,2182
2004-09-02      07:38:39-0400      1396      698      Binary: C:\WINNT\system32\wuaueng.dll: Target version: 5.4.3790.2182 Required: 5.4.3790.2182
2004-09-02      07:38:39-0400      1396      698      Required Version for binary C:\WINNT\system32\wuaueng1.dll is: 5,4,3790,2182
2004-09-02      07:38:39-0400      1396      698      Binary: C:\WINNT\system32\wuaueng1.dll: Target version: 5.4.3790.2182 Required: 5.4.3790.2182
2004-09-02      07:38:39-0400      1396      698      Required Version for binary C:\WINNT\system32\wucltui.dll is: 5,4,3790,2182
2004-09-02      07:38:39-0400      1396      698      Binary: C:\WINNT\system32\wucltui.dll: Target version: 5.4.3790.2182 Required: 5.4.3790.2182
2004-09-02      07:38:39-0400      1396      698      Required Version for binary C:\WINNT\system32\wups.dll is: 5,4,3790,2182
2004-09-02      07:38:39-0400      1396      698      Binary: C:\WINNT\system32\wups.dll: Target version: 5.4.3790.2182 Required: 5.4.3790.2182
2004-09-02      07:38:39-0400      1396      698      CreateObject for Microsoft.Update.AutoUpdate failed: error 0x800401f3
2004-09-02      07:38:39-0400      1396      698      CreateObject for Microsoft.Update.SystemInfo failed: error 0x800401f3
2004-09-02      07:40:55-0400      1396      698      Checking for different Redirector at: http://download.windowsupdate.com/msdownload/update/v5/redir/wuredir.cab
2004-09-02      07:40:55-0400      1396      698      WinInet: Server file is not newer.  Skipping download.
2004-09-02      07:40:55-0400      1396      698      Successfully refreshed Redirector cab.
2004-09-02      07:40:55-0400      1396      698      WinInet: Server file is not newer.  Skipping download.
2004-09-02      07:40:56-0400      1396      698      WinInet: Download speed is 66055 bytes/sec
2004-09-02      07:40:56-0400      1396      698      WinInet: Successfully downloaded http://v5.windowsupdate.microsoft.com/SelfUpdate/AU/x86/XP/en/wusetup.cab to file C:\WINNT\SoftwareDistribution\WebSetup\wusetup.cab
2004-09-02      07:40:56-0400      1396      698      Loading inf file C:\WINNT\SoftwareDistribution\WebSetup\wusetup.inf
2004-09-02      07:40:56-0400      1396      698      Section name: cdm: Index: 0
2004-09-02      07:40:56-0400      1396      698      Section name: iuengine: Index: 1
2004-09-02      07:40:56-0400      1396      698      Section name: wuapi: Index: 2
2004-09-02      07:40:56-0400      1396      698      Section name: wuauclt: Index: 3
2004-09-02      07:40:56-0400      1396      698      Section name: wuauclt1: Index: 4
2004-09-02      07:40:56-0400      1396      698      Section name: wuaucpl: Index: 5
2004-09-02      07:40:56-0400      1396      698      Section name: wuaueng_WebSetup: Index: 6
2004-09-02      07:40:56-0400      1396      698      Section name: wuaueng1: Index: 7
2004-09-02      07:40:56-0400      1396      698      Section name: wuauserv_WebSetup: Index: 8
2004-09-02      07:40:56-0400      1396      698      Section name: wucltui: Index: 9
2004-09-02      07:40:56-0400      1396      698      Section name: wups: Index: 10
2004-09-02      07:40:56-0400      1396      698      Section name: winhttp: Index: 11
2004-09-02      07:40:56-0400      1396      698      Required Version for binary C:\WINNT\system32\cdm.dll is: 5,5,3790,2182
2004-09-02      07:40:56-0400      1396      698      Binary: C:\WINNT\system32\cdm.dll: Target version: 5.5.3790.2182 Required: 5.5.3790.2182
2004-09-02      07:40:56-0400      1396      698      Required Version for binary C:\WINNT\system32\iuengine.dll is: 5,4,3790,2182
2004-09-02      07:40:56-0400      1396      698      Binary: C:\WINNT\system32\iuengine.dll: Target version: 5.4.3790.2182 Required: 5.4.3790.2182
2004-09-02      07:40:56-0400      1396      698      Required Version for binary C:\WINNT\system32\wuapi.dll is: 5,4,3790,2182
2004-09-02      07:40:56-0400      1396      698      Binary: C:\WINNT\system32\wuapi.dll: Target version: 5.4.3790.2182 Required: 5.4.3790.2182
2004-09-02      07:40:56-0400      1396      698      Required Version for binary C:\WINNT\system32\wuauclt.exe is: 5,4,3790,2182
2004-09-02      07:40:56-0400      1396      698      Binary: C:\WINNT\system32\wuauclt.exe: Target version: 5.4.3790.2182 Required: 5.4.3790.2182
2004-09-02      07:40:56-0400      1396      698      Required Version for binary C:\WINNT\system32\wuauclt1.exe is: 5,4,3790,2182
2004-09-02      07:40:56-0400      1396      698      Binary: C:\WINNT\system32\wuauclt1.exe: Target version: 5.4.3790.2182 Required: 5.4.3790.2182
2004-09-02      07:40:56-0400      1396      698      Required Version for binary C:\WINNT\system32\wuaucpl.cpl is: 5,4,3790,2182
2004-09-02      07:40:56-0400      1396      698      Binary: C:\WINNT\system32\wuaucpl.cpl: Target version: 5.4.3790.2182 Required: 5.4.3790.2182
2004-09-02      07:40:56-0400      1396      698      Required Version for binary C:\WINNT\system32\wuaueng.dll is: 5,4,3790,2182
2004-09-02      07:40:56-0400      1396      698      Binary: C:\WINNT\system32\wuaueng.dll: Target version: 5.4.3790.2182 Required: 5.4.3790.2182
2004-09-02      07:40:56-0400      1396      698      Required Version for binary C:\WINNT\system32\wuaueng1.dll is: 5,4,3790,2182
2004-09-02      07:40:56-0400      1396      698      Binary: C:\WINNT\system32\wuaueng1.dll: Target version: 5.4.3790.2182 Required: 5.4.3790.2182
2004-09-02      07:40:56-0400      1396      698      Required Version for binary C:\WINNT\system32\wucltui.dll is: 5,4,3790,2182
2004-09-02      07:40:56-0400      1396      698      Binary: C:\WINNT\system32\wucltui.dll: Target version: 5.4.3790.2182 Required: 5.4.3790.2182
2004-09-02      07:40:56-0400      1396      698      Required Version for binary C:\WINNT\system32\wups.dll is: 5,4,3790,2182
2004-09-02      07:40:56-0400      1396      698      Binary: C:\WINNT\system32\wups.dll: Target version: 5.4.3790.2182 Required: 5.4.3790.2182
2004-09-02      07:40:56-0400      1396      698      CreateObject for Microsoft.Update.AutoUpdate failed: error 0x800401f3
2004-09-02      07:40:56-0400      1396      698      CreateObject for Microsoft.Update.SystemInfo failed: error 0x800401f3
2004-09-02      07:41:05-0400      1396      698      Checking for different Redirector at: http://download.windowsupdate.com/msdownload/update/v5/redir/wuredir.cab
2004-09-02      07:41:06-0400      1396      698      WinInet: Server file is not newer.  Skipping download.
2004-09-02      07:41:06-0400      1396      698      Successfully refreshed Redirector cab.
2004-09-02      07:41:06-0400      1396      698      WinInet: Server file is not newer.  Skipping download.
2004-09-02      07:41:07-0400      1396      698      WinInet: Download speed is 66446 bytes/sec
2004-09-02      07:41:07-0400      1396      698      WinInet: Successfully downloaded http://v5.windowsupdate.microsoft.com/SelfUpdate/AU/x86/XP/en/wusetup.cab to file C:\WINNT\SoftwareDistribution\WebSetup\wusetup.cab
2004-09-02      07:41:07-0400      1396      698      Loading inf file C:\WINNT\SoftwareDistribution\WebSetup\wusetup.inf
2004-09-02      07:41:07-0400      1396      698      Section name: cdm: Index: 0
2004-09-02      07:41:07-0400      1396      698      Section name: iuengine: Index: 1
2004-09-02      07:41:07-0400      1396      698      Section name: wuapi: Index: 2
2004-09-02      07:41:07-0400      1396      698      Section name: wuauclt: Index: 3
2004-09-02      07:41:07-0400      1396      698      Section name: wuauclt1: Index: 4
2004-09-02      07:41:07-0400      1396      698      Section name: wuaucpl: Index: 5
2004-09-02      07:41:07-0400      1396      698      Section name: wuaueng_WebSetup: Index: 6
2004-09-02      07:41:07-0400      1396      698      Section name: wuaueng1: Index: 7
2004-09-02      07:41:07-0400      1396      698      Section name: wuauserv_WebSetup: Index: 8
2004-09-02      07:41:07-0400      1396      698      Section name: wucltui: Index: 9
2004-09-02      07:41:07-0400      1396      698      Section name: wups: Index: 10
2004-09-02      07:41:07-0400      1396      698      Section name: winhttp: Index: 11
2004-09-02      07:41:07-0400      1396      698      Required Version for binary C:\WINNT\system32\cdm.dll is: 5,5,3790,2182
2004-09-02      07:41:07-0400      1396      698      Binary: C:\WINNT\system32\cdm.dll: Target version: 5.5.3790.2182 Required: 5.5.3790.2182
2004-09-02      07:41:07-0400      1396      698      Required Version for binary C:\WINNT\system32\iuengine.dll is: 5,4,3790,2182
2004-09-02      07:41:07-0400      1396      698      Binary: C:\WINNT\system32\iuengine.dll: Target version: 5.4.3790.2182 Required: 5.4.3790.2182
2004-09-02      07:41:07-0400      1396      698      Required Version for binary C:\WINNT\system32\wuapi.dll is: 5,4,3790,2182
2004-09-02      07:41:07-0400      1396      698      Binary: C:\WINNT\system32\wuapi.dll: Target version: 5.4.3790.2182 Required: 5.4.3790.2182
2004-09-02      07:41:07-0400      1396      698      Required Version for binary C:\WINNT\system32\wuauclt.exe is: 5,4,3790,2182
2004-09-02      07:41:07-0400      1396      698      Binary: C:\WINNT\system32\wuauclt.exe: Target version: 5.4.3790.2182 Required: 5.4.3790.2182
2004-09-02      07:41:07-0400      1396      698      Required Version for binary C:\WINNT\system32\wuauclt1.exe is: 5,4,3790,2182
2004-09-02      07:41:07-0400      1396      698      Binary: C:\WINNT\system32\wuauclt1.exe: Target version: 5.4.3790.2182 Required: 5.4.3790.2182
2004-09-02      07:41:07-0400      1396      698      Required Version for binary C:\WINNT\system32\wuaucpl.cpl is: 5,4,3790,2182
2004-09-02      07:41:07-0400      1396      698      Binary: C:\WINNT\system32\wuaucpl.cpl: Target version: 5.4.3790.2182 Required: 5.4.3790.2182
2004-09-02      07:41:07-0400      1396      698      Required Version for binary C:\WINNT\system32\wuaueng.dll is: 5,4,3790,2182
2004-09-02      07:41:07-0400      1396      698      Binary: C:\WINNT\system32\wuaueng.dll: Target version: 5.4.3790.2182 Required: 5.4.3790.2182
2004-09-02      07:41:07-0400      1396      698      Required Version for binary C:\WINNT\system32\wuaueng1.dll is: 5,4,3790,2182
2004-09-02      07:41:07-0400      1396      698      Binary: C:\WINNT\system32\wuaueng1.dll: Target version: 5.4.3790.2182 Required: 5.4.3790.2182
2004-09-02      07:41:07-0400      1396      698      Required Version for binary C:\WINNT\system32\wucltui.dll is: 5,4,3790,2182
2004-09-02      07:41:07-0400      1396      698      Binary: C:\WINNT\system32\wucltui.dll: Target version: 5.4.3790.2182 Required: 5.4.3790.2182
2004-09-02      07:41:07-0400      1396      698      Required Version for binary C:\WINNT\system32\wups.dll is: 5,4,3790,2182
2004-09-02      07:41:07-0400      1396      698      Binary: C:\WINNT\system32\wups.dll: Target version: 5.4.3790.2182 Required: 5.4.3790.2182
2004-09-02      07:41:07-0400      1396      698      CreateObject for Microsoft.Update.AutoUpdate failed: error 0x800401f3
2004-09-02      07:41:07-0400      1396      698      CreateObject for Microsoft.Update.SystemInfo failed: error 0x800401f3
2004-09-02      07:41:10-0400      1396      698      Checking for different Redirector at: http://download.windowsupdate.com/msdownload/update/v5/redir/wuredir.cab
2004-09-02      07:41:10-0400      1396      698      WinInet: Server file is not newer.  Skipping download.
2004-09-02      07:41:10-0400      1396      698      Successfully refreshed Redirector cab.
2004-09-02      07:41:10-0400      1396      698      WinInet: Server file is not newer.  Skipping download.
2004-09-02      07:41:11-0400      1396      698      WinInet: Download speed is 22903625 bytes/sec
2004-09-02      07:41:11-0400      1396      698      WinInet: Successfully downloaded http://v5.windowsupdate.microsoft.com/SelfUpdate/AU/x86/XP/en/wusetup.cab to file C:\WINNT\SoftwareDistribution\WebSetup\wusetup.cab
2004-09-02      07:41:11-0400      1396      698      Loading inf file C:\WINNT\SoftwareDistribution\WebSetup\wusetup.inf
2004-09-02      07:41:11-0400      1396      698      Section name: cdm: Index: 0
2004-09-02      07:41:11-0400      1396      698      Section name: iuengine: Index: 1
2004-09-02      07:41:11-0400      1396      698      Section name: wuapi: Index: 2
2004-09-02      07:41:11-0400      1396      698      Section name: wuauclt: Index: 3
2004-09-02      07:41:11-0400      1396      698      Section name: wuauclt1: Index: 4
2004-09-02      07:41:11-0400      1396      698      Section name: wuaucpl: Index: 5
2004-09-02      07:41:11-0400      1396      698      Section name: wuaueng_WebSetup: Index: 6
2004-09-02      07:41:11-0400      1396      698      Section name: wuaueng1: Index: 7
2004-09-02      07:41:11-0400      1396      698      Section name: wuauserv_WebSetup: Index: 8
2004-09-02      07:41:11-0400      1396      698      Section name: wucltui: Index: 9
2004-09-02      07:41:11-0400      1396      698      Section name: wups: Index: 10
2004-09-02      07:41:11-0400      1396      698      Section name: winhttp: Index: 11
2004-09-02      07:41:11-0400      1396      698      Required Version for binary C:\WINNT\system32\cdm.dll is: 5,5,3790,2182
2004-09-02      07:41:11-0400      1396      698      Binary: C:\WINNT\system32\cdm.dll: Target version: 5.5.3790.2182 Required: 5.5.3790.2182
2004-09-02      07:41:11-0400      1396      698      Required Version for binary C:\WINNT\system32\iuengine.dll is: 5,4,3790,2182
2004-09-02      07:41:11-0400      1396      698      Binary: C:\WINNT\system32\iuengine.dll: Target version: 5.4.3790.2182 Required: 5.4.3790.2182
2004-09-02      07:41:11-0400      1396      698      Required Version for binary C:\WINNT\system32\wuapi.dll is: 5,4,3790,2182
2004-09-02      07:41:11-0400      1396      698      Binary: C:\WINNT\system32\wuapi.dll: Target version: 5.4.3790.2182 Required: 5.4.3790.2182
2004-09-02      07:41:11-0400      1396      698      Required Version for binary C:\WINNT\system32\wuauclt.exe is: 5,4,3790,2182
2004-09-02      07:41:11-0400      1396      698      Binary: C:\WINNT\system32\wuauclt.exe: Target version: 5.4.3790.2182 Required: 5.4.3790.2182
2004-09-02      07:41:11-0400      1396      698      Required Version for binary C:\WINNT\system32\wuauclt1.exe is: 5,4,3790,2182
2004-09-02      07:41:11-0400      1396      698      Binary: C:\WINNT\system32\wuauclt1.exe: Target version: 5.4.3790.2182 Required: 5.4.3790.2182
2004-09-02      07:41:11-0400      1396      698      Required Version for binary C:\WINNT\system32\wuaucpl.cpl is: 5,4,3790,2182
2004-09-02      07:41:11-0400      1396      698      Binary: C:\WINNT\system32\wuaucpl.cpl: Target version: 5.4.3790.2182 Required: 5.4.3790.2182
2004-09-02      07:41:11-0400      1396      698      Required Version for binary C:\WINNT\system32\wuaueng.dll is: 5,4,3790,2182
2004-09-02      07:41:11-0400      1396      698      Binary: C:\WINNT\system32\wuaueng.dll: Target version: 5.4.3790.2182 Required: 5.4.3790.2182
2004-09-02      07:41:11-0400      1396      698      Required Version for binary C:\WINNT\system32\wuaueng1.dll is: 5,4,3790,2182
2004-09-02      07:41:11-0400      1396      698      Binary: C:\WINNT\system32\wuaueng1.dll: Target version: 5.4.3790.2182 Required: 5.4.3790.2182
2004-09-02      07:41:11-0400      1396      698      Required Version for binary C:\WINNT\system32\wucltui.dll is: 5,4,3790,2182
2004-09-02      07:41:11-0400      1396      698      Binary: C:\WINNT\system32\wucltui.dll: Target version: 5.4.3790.2182 Required: 5.4.3790.2182
2004-09-02      07:41:11-0400      1396      698      Required Version for binary C:\WINNT\system32\wups.dll is: 5,4,3790,2182
2004-09-02      07:41:11-0400      1396      698      Binary: C:\WINNT\system32\wups.dll: Target version: 5.4.3790.2182 Required: 5.4.3790.2182
2004-09-02      07:41:11-0400      1396      698      CreateObject for Microsoft.Update.AutoUpdate failed: error 0x800401f3
2004-09-02      07:41:11-0400      1396      698      CreateObject for Microsoft.Update.SystemInfo failed: error 0x800401f3
2004-09-02      07:41:21-0400      1396      698      Checking for different Redirector at: http://download.windowsupdate.com/msdownload/update/v5/redir/wuredir.cab
2004-09-02      07:41:21-0400      1396      698      WinInet: Server file is not newer.  Skipping download.
2004-09-02      07:41:21-0400      1396      698      Successfully refreshed Redirector cab.
2004-09-02      07:41:22-0400      1396      698      WinInet: Server file is not newer.  Skipping download.
2004-09-02      07:41:22-0400      1396      698      WinInet: Download speed is 21918723 bytes/sec
2004-09-02      07:41:22-0400      1396      698      WinInet: Successfully downloaded http://v5.windowsupdate.microsoft.com/SelfUpdate/AU/x86/XP/en/wusetup.cab to file C:\WINNT\SoftwareDistribution\WebSetup\wusetup.cab
2004-09-02      07:41:22-0400      1396      698      Loading inf file C:\WINNT\SoftwareDistribution\WebSetup\wusetup.inf
2004-09-02      07:41:22-0400      1396      698      Section name: cdm: Index: 0
2004-09-02      07:41:22-0400      1396      698      Section name: iuengine: Index: 1
2004-09-02      07:41:22-0400      1396      698      Section name: wuapi: Index: 2
2004-09-02      07:41:22-0400      1396      698      Section name: wuauclt: Index: 3
2004-09-02      07:41:22-0400      1396      698      Section name: wuauclt1: Index: 4
2004-09-02      07:41:22-0400      1396      698      Section name: wuaucpl: Index: 5
2004-09-02      07:41:22-0400      1396      698      Section name: wuaueng_WebSetup: Index: 6
2004-09-02      07:41:22-0400      1396      698      Section name: wuaueng1: Index: 7
2004-09-02      07:41:22-0400      1396      698      Section name: wuauserv_WebSetup: Index: 8
2004-09-02      07:41:22-0400      1396      698      Section name: wucltui: Index: 9
2004-09-02      07:41:22-0400      1396      698      Section name: wups: Index: 10
2004-09-02      07:41:22-0400      1396      698      Section name: winhttp: Index: 11
2004-09-02      07:41:22-0400      1396      698      Required Version for binary C:\WINNT\system32\cdm.dll is: 5,5,3790,2182
2004-09-02      07:41:22-0400      1396      698      Binary: C:\WINNT\system32\cdm.dll: Target version: 5.5.3790.2182 Required: 5.5.3790.2182
2004-09-02      07:41:22-0400      1396      698      Required Version for binary C:\WINNT\system32\iuengine.dll is: 5,4,3790,2182
2004-09-02      07:41:22-0400      1396      698      Binary: C:\WINNT\system32\iuengine.dll: Target version: 5.4.3790.2182 Required: 5.4.3790.2182
2004-09-02      07:41:22-0400      1396      698      Required Version for binary C:\WINNT\system32\wuapi.dll is: 5,4,3790,2182
2004-09-02      07:41:22-0400      1396      698      Binary: C:\WINNT\system32\wuapi.dll: Target version: 5.4.3790.2182 Required: 5.4.3790.2182
2004-09-02      07:41:22-0400      1396      698      Required Version for binary C:\WINNT\system32\wuauclt.exe is: 5,4,3790,2182
2004-09-02      07:41:22-0400      1396      698      Binary: C:\WINNT\system32\wuauclt.exe: Target version: 5.4.3790.2182 Required: 5.4.3790.2182
2004-09-02      07:41:22-0400      1396      698      Required Version for binary C:\WINNT\system32\wuauclt1.exe is: 5,4,3790,2182
2004-09-02      07:41:22-0400      1396      698      Binary: C:\WINNT\system32\wuauclt1.exe: Target version: 5.4.3790.2182 Required: 5.4.3790.2182
2004-09-02      07:41:22-0400      1396      698      Required Version for binary C:\WINNT\system32\wuaucpl.cpl is: 5,4,3790,2182
2004-09-02      07:41:22-0400      1396      698      Binary: C:\WINNT\system32\wuaucpl.cpl: Target version: 5.4.3790.2182 Required: 5.4.3790.2182
2004-09-02      07:41:22-0400      1396      698      Required Version for binary C:\WINNT\system32\wuaueng.dll is: 5,4,3790,2182
2004-09-02      07:41:22-0400      1396      698      Binary: C:\WINNT\system32\wuaueng.dll: Target version: 5.4.3790.2182 Required: 5.4.3790.2182
2004-09-02      07:41:22-0400      1396      698      Required Version for binary C:\WINNT\system32\wuaueng1.dll is: 5,4,3790,2182
2004-09-02      07:41:22-0400      1396      698      Binary: C:\WINNT\system32\wuaueng1.dll: Target version: 5.4.3790.2182 Required: 5.4.3790.2182
2004-09-02      07:41:22-0400      1396      698      Required Version for binary C:\WINNT\system32\wucltui.dll is: 5,4,3790,2182
2004-09-02      07:41:22-0400      1396      698      Binary: C:\WINNT\system32\wucltui.dll: Target version: 5.4.3790.2182 Required: 5.4.3790.2182
2004-09-02      07:41:22-0400      1396      698      Required Version for binary C:\WINNT\system32\wups.dll is: 5,4,3790,2182
2004-09-02      07:41:22-0400      1396      698      Binary: C:\WINNT\system32\wups.dll: Target version: 5.4.3790.2182 Required: 5.4.3790.2182
2004-09-02      07:41:22-0400      1396      698      CreateObject for Microsoft.Update.AutoUpdate failed: error 0x800401f3
2004-09-02      07:41:22-0400      1396      698      CreateObject for Microsoft.Update.SystemInfo failed: error 0x800401f3
2004-09-02      08:02:28-0400      1396      698      Checking for different Redirector at: http://download.windowsupdate.com/msdownload/update/v5/redir/wuredir.cab
2004-09-02      08:02:28-0400      1396      698      WinInet: Server file is not newer.  Skipping download.
2004-09-02      08:02:28-0400      1396      698      Successfully refreshed Redirector cab.
2004-09-02      08:02:28-0400      1396      698      WinInet: Server file is not newer.  Skipping download.
2004-09-02      08:02:29-0400      1396      698      WinInet: Download speed is 66302 bytes/sec
2004-09-02      08:02:29-0400      1396      698      WinInet: Successfully downloaded http://v5.windowsupdate.microsoft.com/SelfUpdate/AU/x86/XP/en/wusetup.cab to file C:\WINNT\SoftwareDistribution\WebSetup\wusetup.cab
2004-09-02      08:02:29-0400      1396      698      Loading inf file C:\WINNT\SoftwareDistribution\WebSetup\wusetup.inf
2004-09-02      08:02:29-0400      1396      698      Section name: cdm: Index: 0
2004-09-02      08:02:29-0400      1396      698      Section name: iuengine: Index: 1
2004-09-02      08:02:29-0400      1396      698      Section name: wuapi: Index: 2
2004-09-02      08:02:29-0400      1396      698      Section name: wuauclt: Index: 3
2004-09-02      08:02:29-0400      1396      698      Section name: wuauclt1: Index: 4
2004-09-02      08:02:29-0400      1396      698      Section name: wuaucpl: Index: 5
2004-09-02      08:02:29-0400      1396      698      Section name: wuaueng_WebSetup: Index: 6
2004-09-02      08:02:29-0400      1396      698      Section name: wuaueng1: Index: 7
2004-09-02      08:02:29-0400      1396      698      Section name: wuauserv_WebSetup: Index: 8
2004-09-02      08:02:29-0400      1396      698      Section name: wucltui: Index: 9
2004-09-02      08:02:29-0400      1396      698      Section name: wups: Index: 10
2004-09-02      08:02:29-0400      1396      698      Section name: winhttp: Index: 11
2004-09-02      08:02:29-0400      1396      698      Required Version for binary C:\WINNT\system32\cdm.dll is: 5,5,3790,2182
2004-09-02      08:02:29-0400      1396      698      Binary: C:\WINNT\system32\cdm.dll: Target version: 5.5.3790.2182 Required: 5.5.3790.2182
2004-09-02      08:02:29-0400      1396      698      Required Version for binary C:\WINNT\system32\iuengine.dll is: 5,4,3790,2182
2004-09-02      08:02:29-0400      1396      698      Binary: C:\WINNT\system32\iuengine.dll: Target version: 5.4.3790.2182 Required: 5.4.3790.2182
2004-09-02      08:02:29-0400      1396      698      Required Version for binary C:\WINNT\system32\wuapi.dll is: 5,4,3790,2182
2004-09-02      08:02:29-0400      1396      698      Binary: C:\WINNT\system32\wuapi.dll: Target version: 5.4.3790.2182 Required: 5.4.3790.2182
2004-09-02      08:02:29-0400      1396      698      Required Version for binary C:\WINNT\system32\wuauclt.exe is: 5,4,3790,2182
2004-09-02      08:02:29-0400      1396      698      Binary: C:\WINNT\system32\wuauclt.exe: Target version: 5.4.3790.2182 Required: 5.4.3790.2182
2004-09-02      08:02:29-0400      1396      698      Required Version for binary C:\WINNT\system32\wuauclt1.exe is: 5,4,3790,2182
2004-09-02      08:02:29-0400      1396      698      Binary: C:\WINNT\system32\wuauclt1.exe: Target version: 5.4.3790.2182 Required: 5.4.3790.2182
2004-09-02      08:02:29-0400      1396      698      Required Version for binary C:\WINNT\system32\wuaucpl.cpl is: 5,4,3790,2182
2004-09-02      08:02:29-0400      1396      698      Binary: C:\WINNT\system32\wuaucpl.cpl: Target version: 5.4.3790.2182 Required: 5.4.3790.2182
2004-09-02      08:02:29-0400      1396      698      Required Version for binary C:\WINNT\system32\wuaueng.dll is: 5,4,3790,2182
2004-09-02      08:02:29-0400      1396      698      Binary: C:\WINNT\system32\wuaueng.dll: Target version: 5.4.3790.2182 Required: 5.4.3790.2182
2004-09-02      08:02:29-0400      1396      698      Required Version for binary C:\WINNT\system32\wuaueng1.dll is: 5,4,3790,2182
2004-09-02      08:02:29-0400      1396      698      Binary: C:\WINNT\system32\wuaueng1.dll: Target version: 5.4.3790.2182 Required: 5.4.3790.2182
2004-09-02      08:02:29-0400      1396      698      Required Version for binary C:\WINNT\system32\wucltui.dll is: 5,4,3790,2182
2004-09-02      08:02:29-0400      1396      698      Binary: C:\WINNT\system32\wucltui.dll: Target version: 5.4.3790.2182 Required: 5.4.3790.2182
2004-09-02      08:02:29-0400      1396      698      Required Version for binary C:\WINNT\system32\wups.dll is: 5,4,3790,2182
2004-09-02      08:02:29-0400      1396      698      Binary: C:\WINNT\system32\wups.dll: Target version: 5.4.3790.2182 Required: 5.4.3790.2182
2004-09-02      08:02:29-0400      1396      698      CreateObject for Microsoft.Update.AutoUpdate failed: error 0x800401f3
2004-09-02      08:02:29-0400      1396      698      CreateObject for Microsoft.Update.SystemInfo failed: error 0x800401f3
2004-09-02      08:05:21-0400      1396      73c      Checking for different Redirector at: http://download.windowsupdate.com/msdownload/update/v5/redir/wuredir.cab
2004-09-02      08:05:21-0400      1396      73c      WinInet: Server file is not newer.  Skipping download.
2004-09-02      08:05:21-0400      1396      73c      Successfully refreshed Redirector cab.
2004-09-02      08:05:22-0400      1396      73c      WinInet: Server file is not newer.  Skipping download.
2004-09-02      08:05:22-0400      1396      73c      WinInet: Download speed is 66381 bytes/sec
2004-09-02      08:05:22-0400      1396      73c      WinInet: Successfully downloaded http://v5.windowsupdate.microsoft.com/SelfUpdate/AU/x86/XP/en/wusetup.cab to file C:\WINNT\SoftwareDistribution\WebSetup\wusetup.cab
2004-09-02      08:05:22-0400      1396      73c      Loading inf file C:\WINNT\SoftwareDistribution\WebSetup\wusetup.inf
2004-09-02      08:05:22-0400      1396      73c      Section name: cdm: Index: 0
2004-09-02      08:05:22-0400      1396      73c      Section name: iuengine: Index: 1
2004-09-02      08:05:22-0400      1396      73c      Section name: wuapi: Index: 2
2004-09-02      08:05:22-0400      1396      73c      Section name: wuauclt: Index: 3
2004-09-02      08:05:22-0400      1396      73c      Section name: wuauclt1: Index: 4
2004-09-02      08:05:22-0400      1396      73c      Section name: wuaucpl: Index: 5
2004-09-02      08:05:22-0400      1396      73c      Section name: wuaueng_WebSetup: Index: 6
2004-09-02      08:05:22-0400      1396      73c      Section name: wuaueng1: Index: 7
2004-09-02      08:05:22-0400      1396      73c      Section name: wuauserv_WebSetup: Index: 8
2004-09-02      08:05:22-0400      1396      73c      Section name: wucltui: Index: 9
2004-09-02      08:05:22-0400      1396      73c      Section name: wups: Index: 10
2004-09-02      08:05:22-0400      1396      73c      Section name: winhttp: Index: 11
2004-09-02      08:05:22-0400      1396      73c      Required Version for binary C:\WINNT\system32\cdm.dll is: 5,5,3790,2182
2004-09-02      08:05:22-0400      1396      73c      Binary: C:\WINNT\system32\cdm.dll: Target version: 5.5.3790.2182 Required: 5.5.3790.2182
2004-09-02      08:05:22-0400      1396      73c      Required Version for binary C:\WINNT\system32\iuengine.dll is: 5,4,3790,2182
2004-09-02      08:05:22-0400      1396      73c      Binary: C:\WINNT\system32\iuengine.dll: Target version: 5.4.3790.2182 Required: 5.4.3790.2182
2004-09-02      08:05:22-0400      1396      73c      Required Version for binary C:\WINNT\system32\wuapi.dll is: 5,4,3790,2182
2004-09-02      08:05:22-0400      1396      73c      Binary: C:\WINNT\system32\wuapi.dll: Target version: 5.4.3790.2182 Required: 5.4.3790.2182
2004-09-02      08:05:22-0400      1396      73c      Required Version for binary C:\WINNT\system32\wuauclt.exe is: 5,4,3790,2182
2004-09-02      08:05:22-0400      1396      73c      Binary: C:\WINNT\system32\wuauclt.exe: Target version: 5.4.3790.2182 Required: 5.4.3790.2182
2004-09-02      08:05:22-0400      1396      73c      Required Version for binary C:\WINNT\system32\wuauclt1.exe is: 5,4,3790,2182
2004-09-02      08:05:22-0400      1396      73c      Binary: C:\WINNT\system32\wuauclt1.exe: Target version: 5.4.3790.2182 Required: 5.4.3790.2182
2004-09-02      08:05:22-0400      1396      73c      Required Version for binary C:\WINNT\system32\wuaucpl.cpl is: 5,4,3790,2182
2004-09-02      08:05:22-0400      1396      73c      Binary: C:\WINNT\system32\wuaucpl.cpl: Target version: 5.4.3790.2182 Required: 5.4.3790.2182
2004-09-02      08:05:22-0400      1396      73c      Required Version for binary C:\WINNT\system32\wuaueng.dll is: 5,4,3790,2182
2004-09-02      08:05:22-0400      1396      73c      Binary: C:\WINNT\system32\wuaueng.dll: Target version: 5.4.3790.2182 Required: 5.4.3790.2182
2004-09-02      08:05:22-0400      1396      73c      Required Version for binary C:\WINNT\system32\wuaueng1.dll is: 5,4,3790,2182
2004-09-02      08:05:22-0400      1396      73c      Binary: C:\WINNT\system32\wuaueng1.dll: Target version: 5.4.3790.2182 Required: 5.4.3790.2182
2004-09-02      08:05:22-0400      1396      73c      Required Version for binary C:\WINNT\system32\wucltui.dll is: 5,4,3790,2182
2004-09-02      08:05:22-0400      1396      73c      Binary: C:\WINNT\system32\wucltui.dll: Target version: 5.4.3790.2182 Required: 5.4.3790.2182
2004-09-02      08:05:22-0400      1396      73c      Required Version for binary C:\WINNT\system32\wups.dll is: 5,4,3790,2182
2004-09-02      08:05:22-0400      1396      73c      Binary: C:\WINNT\system32\wups.dll: Target version: 5.4.3790.2182 Required: 5.4.3790.2182
2004-09-02      08:05:22-0400      1396      73c      CreateObject for Microsoft.Update.AutoUpdate failed: error 0x800401f3
2004-09-02      08:05:22-0400      1396      73c      CreateObject for Microsoft.Update.SystemInfo failed: error 0x800401f3
2004-09-02      08:16:26-0400       880      380      Checking for different Redirector at: http://download.windowsupdate.com/msdownload/update/v5/redir/wuredir.cab
2004-09-02      08:16:26-0400       880      380      WinInet: Server file is not newer.  Skipping download.
2004-09-02      08:16:26-0400       880      380      Successfully refreshed Redirector cab.
2004-09-02      08:16:27-0400       880      380      WinInet: Server file is not newer.  Skipping download.
2004-09-02      08:16:27-0400       880      380      WinInet: Download speed is 74297 bytes/sec
2004-09-02      08:16:27-0400       880      380      WinInet: Successfully downloaded http://v5.windowsupdate.microsoft.com/SelfUpdate/AU/x86/XP/en/wusetup.cab to file C:\WINNT\SoftwareDistribution\WebSetup\wusetup.cab
2004-09-02      08:16:27-0400       880      380      Loading inf file C:\WINNT\SoftwareDistribution\WebSetup\wusetup.inf
2004-09-02      08:16:27-0400       880      380      Section name: cdm: Index: 0
2004-09-02      08:16:27-0400       880      380      Section name: iuengine: Index: 1
2004-09-02      08:16:27-0400       880      380      Section name: wuapi: Index: 2
2004-09-02      08:16:27-0400       880      380      Section name: wuauclt: Index: 3
2004-09-02      08:16:27-0400       880      380      Section name: wuauclt1: Index: 4
2004-09-02      08:16:27-0400       880      380      Section name: wuaucpl: Index: 5
2004-09-02      08:16:27-0400       880      380      Section name: wuaueng_WebSetup: Index: 6
2004-09-02      08:16:27-0400       880      380      Section name: wuaueng1: Index: 7
2004-09-02      08:16:27-0400       880      380      Section name: wuauserv_WebSetup: Index: 8
2004-09-02      08:16:27-0400       880      380      Section name: wucltui: Index: 9
2004-09-02      08:16:27-0400       880      380      Section name: wups: Index: 10
2004-09-02      08:16:27-0400       880      380      Section name: winhttp: Index: 11
2004-09-02      08:16:27-0400       880      380      Required Version for binary C:\WINNT\system32\cdm.dll is: 5,5,3790,2182
2004-09-02      08:16:27-0400       880      380      Binary: C:\WINNT\system32\cdm.dll: Target version: 5.5.3790.2182 Required: 5.5.3790.2182
2004-09-02      08:16:27-0400       880      380      Required Version for binary C:\WINNT\system32\iuengine.dll is: 5,4,3790,2182
2004-09-02      08:16:27-0400       880      380      Binary: C:\WINNT\system32\iuengine.dll: Target version: 5.4.3790.2182 Required: 5.4.3790.2182
2004-09-02      08:16:27-0400       880      380      Required Version for binary C:\WINNT\system32\wuapi.dll is: 5,4,3790,2182
2004-09-02      08:16:27-0400       880      380      Binary: C:\WINNT\system32\wuapi.dll: Target version: 5.4.3790.2182 Required: 5.4.3790.2182
2004-09-02      08:16:27-0400       880      380      Required Version for binary C:\WINNT\system32\wuauclt.exe is: 5,4,3790,2182
2004-09-02      08:16:28-0400       880      380      Binary: C:\WINNT\system32\wuauclt.exe: Target version: 5.4.3790.2182 Required: 5.4.3790.2182
2004-09-02      08:16:28-0400       880      380      Required Version for binary C:\WINNT\system32\wuauclt1.exe is: 5,4,3790,2182
2004-09-02      08:16:28-0400       880      380      Binary: C:\WINNT\system32\wuauclt1.exe: Target version: 5.4.3790.2182 Required: 5.4.3790.2182
2004-09-02      08:16:28-0400       880      380      Required Version for binary C:\WINNT\system32\wuaucpl.cpl is: 5,4,3790,2182
2004-09-02      08:16:28-0400       880      380      Binary: C:\WINNT\system32\wuaucpl.cpl: Target version: 5.4.3790.2182 Required: 5.4.3790.2182
2004-09-02      08:16:28-0400       880      380      Required Version for binary C:\WINNT\system32\wuaueng.dll is: 5,4,3790,2182
2004-09-02      08:16:28-0400       880      380      Binary: C:\WINNT\system32\wuaueng.dll: Target version: 5.4.3790.2182 Required: 5.4.3790.2182
2004-09-02      08:16:28-0400       880      380      Required Version for binary C:\WINNT\system32\wuaueng1.dll is: 5,4,3790,2182
2004-09-02      08:16:28-0400       880      380      Binary: C:\WINNT\system32\wuaueng1.dll: Target version: 5.4.3790.2182 Required: 5.4.3790.2182
2004-09-02      08:16:28-0400       880      380      Required Version for binary C:\WINNT\system32\wucltui.dll is: 5,4,3790,2182
2004-09-02      08:16:28-0400       880      380      Binary: C:\WINNT\system32\wucltui.dll: Target version: 5.4.3790.2182 Required: 5.4.3790.2182
2004-09-02      08:16:28-0400       880      380      Required Version for binary C:\WINNT\system32\wups.dll is: 5,4,3790,2182
2004-09-02      08:16:28-0400       880      380      Binary: C:\WINNT\system32\wups.dll: Target version: 5.4.3790.2182 Required: 5.4.3790.2182
2004-09-02      08:16:28-0400       880      380      CreateObject for Microsoft.Update.AutoUpdate failed: error 0x800401f3
2004-09-02      08:16:28-0400       880      380      CreateObject for Microsoft.Update.SystemInfo failed: error 0x800401f3
2004-09-02      08:17:08-0400      1264      504      WUCheckForUpdatesAtShutdown failed, hr=8024000C
2004-09-02      08:17:14-0400       372      56c      WUAutoUpdateAtShutdown failed, hr=8024000C
2004-09-02      08:20:17-0400       728      188      Service Main starts
2004-09-02      08:20:19-0400       728      188      Using BatchFlushAge = 13675.
2004-09-02      08:20:19-0400       728      188      Using SamplingValue = 403.
2004-09-02      08:20:19-0400       728      188      Successfully loaded event namespace dictionary.
2004-09-02      08:20:23-0400       728      188      Successfully loaded client event namespace descriptor.
2004-09-02      08:20:23-0400       728      188      Successfully initialized local event logger. Events will be logged at C:\WINNT\SoftwareDistribution\ReportingEvents.log.
2004-09-02      08:20:23-0400       728      188      Successfully initialized NT event logger.
2004-09-02      08:20:23-0400       728      188      Successfully initialized event uploader 0.
2004-09-02      08:20:24-0400       728      188      Successfully initialized event uploader 1.
2004-09-02      08:20:24-0400       728      188      WU client with version 5.4.3790.2182 successfully initialized
2004-09-02      08:20:24-0400       728      188      Service status is now SERVICE_RUNNING
2004-09-02      08:21:09-0400       728      188      start delayed initialization of WU client
2004-09-02      08:21:34-0400      2092      830      Trying to make out of proc datastore active
2004-09-02      08:21:39-0400       728      2dc      Service received connect notification
2004-09-02      08:21:45-0400      2092      830      Out of proc datastore is now active
2004-09-02      08:21:46-0400      2092      830      Out of proc datastore is shutting down
2004-09-02      08:21:46-0400       728      188      WU client failed to load persisted download calls with error 0x80004002
2004-09-02      08:21:46-0400       728      188      Client Call Recorder finished delayed initialization
2004-09-02      08:21:48-0400      2092      830      Out of proc datastore is now inactive
2004-09-02      08:22:01-0400      2408      96c      Trying to make out of proc datastore active
2004-09-02      08:22:18-0400      2408      96c      Out of proc datastore is now active
2004-09-02      08:22:18-0400      2408      96c      Out of proc datastore is shutting down
2004-09-02      08:22:18-0400       728      188      DM: GetSession failed with 0x80004002.
2004-09-02      08:22:20-0400       728      188      Setting next AU detection timeout to 2004-09-02 12:22:19
2004-09-02      08:22:21-0400      2408      96c      Out of proc datastore is now inactive
2004-09-02      08:22:40-0400      2824      b0c      Trying to make out of proc datastore active
2004-09-02      08:22:53-0400      2824      b0c      Out of proc datastore is now active
2004-09-02      08:22:53-0400      2824      b0c      Out of proc datastore is shutting down
2004-09-02      08:22:57-0400      2824      b0c      Out of proc datastore is now inactive
2004-09-02      08:23:21-0400      3052      bf0      Trying to make out of proc datastore active
2004-09-02      08:23:27-0400      3052      bf0      Out of proc datastore is now active
2004-09-02      08:23:27-0400      3052      bf0      Out of proc datastore is shutting down
2004-09-02      08:23:27-0400       728      188      Failed to get session from datastore: 80004002
2004-09-02      08:23:27-0400       728      188      Failed to Unserialize from data store: 80004002
2004-09-02      08:23:28-0400       728      188      InitAUComponents Failed, will restart AU in 30 mins: 80004002
2004-09-02      08:23:28-0400       728      188      AU Restart required....
2004-09-02      08:23:30-0400      3052      bf0      Out of proc datastore is now inactive
2004-09-02      08:53:29-0400       728      188      AU received event of 1
2004-09-02      08:53:30-0400       728      188      Setting next AU detection timeout to 2004-09-02 12:53:30
2004-09-02      08:53:53-0400      3860      f18      Trying to make out of proc datastore active
2004-09-02      08:53:58-0400      3860      f18      Out of proc datastore is now active
2004-09-02      08:53:58-0400      3860      f18      Out of proc datastore is shutting down
2004-09-02      08:53:59-0400      3900      f40      Trying to make out of proc datastore active
2004-09-02      08:54:00-0400      3860      f18      Out of proc datastore is now inactive
2004-09-02      08:54:02-0400      3900      f40      Out of proc datastore is now active
2004-09-02      08:54:02-0400      3900      f40      Out of proc datastore is shutting down
2004-09-02      08:54:02-0400       728      188      Failed to get session from datastore: 80004002
2004-09-02      08:54:02-0400       728      188      Failed to Unserialize from data store: 80004002
2004-09-02      08:54:02-0400       728      188      AU Restart required....
2004-09-02      08:54:04-0400      3900      f40      Out of proc datastore is now inactive
2004-09-02      09:24:02-0400       728      188      AU received event of 1
2004-09-02      09:24:03-0400       728      188      Setting next AU detection timeout to 2004-09-02 13:24:03
2004-09-02      09:24:10-0400      4056      fdc      Trying to make out of proc datastore active
2004-09-02      09:24:16-0400      4056      fdc      Out of proc datastore is now active
2004-09-02      09:24:16-0400      4056      fdc      Out of proc datastore is shutting down
2004-09-02      09:24:19-0400      4056      fdc      Out of proc datastore is now inactive
2004-09-02      09:24:19-0400       800      350      Trying to make out of proc datastore active
2004-09-02      09:24:21-0400       800      350      Out of proc datastore is now active
2004-09-02      09:24:21-0400       800      350      Out of proc datastore is shutting down
2004-09-02      09:24:21-0400       728      188      Failed to get session from datastore: 80004002
2004-09-02      09:24:21-0400       728      188      Failed to Unserialize from data store: 80004002
2004-09-02      09:24:21-0400       728      188      AU Restart required....
2004-09-02      09:24:23-0400       800      350      Out of proc datastore is now inactive
2004-09-02      09:54:21-0400       728      188      AU received event of 1
2004-09-02      09:54:21-0400       728      188      Setting next AU detection timeout to 2004-09-02 13:54:21
2004-09-02      09:54:23-0400      1172      490      Trying to make out of proc datastore active
2004-09-02      09:54:24-0400      1172      490      Out of proc datastore is now active
2004-09-02      09:54:24-0400      1172      490      Out of proc datastore is shutting down
2004-09-02      09:54:25-0400      1228      3bc      Trying to make out of proc datastore active
2004-09-02      09:54:26-0400      1228      3bc      Out of proc datastore is now active
2004-09-02      09:54:26-0400      1228      3bc      Out of proc datastore is shutting down
2004-09-02      09:54:26-0400       728      188      Failed to get session from datastore: 80004002
2004-09-02      09:54:26-0400       728      188      Failed to Unserialize from data store: 80004002
2004-09-02      09:54:26-0400       728      188      AU Restart required....
2004-09-02      09:54:26-0400      1172      490      Out of proc datastore is now inactive
2004-09-02      09:54:27-0400      1228      3bc      Out of proc datastore is now inactive
2004-09-02      10:24:26-0400       728      188      AU received event of 1
2004-09-02      10:24:26-0400       728      188      Setting next AU detection timeout to 2004-09-02 14:24:26
2004-09-02      10:24:26-0400      2084      1dc      Trying to make out of proc datastore active
2004-09-02      10:24:27-0400      2084      1dc      Out of proc datastore is now active
2004-09-02      10:24:27-0400      2084      1dc      Out of proc datastore is shutting down
2004-09-02      10:24:27-0400      2124      8a0      Trying to make out of proc datastore active
2004-09-02      10:24:28-0400      2084      1dc      Out of proc datastore is now inactive
2004-09-02      10:24:28-0400      2124      8a0      Out of proc datastore is now active
2004-09-02      10:24:28-0400      2124      8a0      Out of proc datastore is shutting down
2004-09-02      10:24:28-0400       728      188      Failed to get session from datastore: 80004002
2004-09-02      10:24:28-0400       728      188      Failed to Unserialize from data store: 80004002
2004-09-02      10:24:28-0400       728      188      AU Restart required....
2004-09-02      10:24:29-0400      2124      8a0      Out of proc datastore is now inactive
2004-09-02      10:54:28-0400       728      188      AU received event of 1
2004-09-02      10:54:28-0400       728      188      Setting next AU detection timeout to 2004-09-02 14:54:28
2004-09-02      10:54:28-0400      1080      2c8      Trying to make out of proc datastore active
2004-09-02      10:54:29-0400      1080      2c8      Out of proc datastore is now active
2004-09-02      10:54:29-0400      1080      2c8      Out of proc datastore is shutting down
2004-09-02      10:54:30-0400      2072      720      Trying to make out of proc datastore active
2004-09-02      10:54:30-0400      2072      720      Out of proc datastore is now active
2004-09-02      10:54:30-0400      2072      720      Out of proc datastore is shutting down
2004-09-02      10:54:30-0400       728      188      Failed to get session from datastore: 80004002
2004-09-02      10:54:30-0400       728      188      Failed to Unserialize from data store: 80004002
2004-09-02      10:54:30-0400       728      188      AU Restart required....
2004-09-02      10:54:30-0400      1080      2c8      Out of proc datastore is now inactive
2004-09-02      10:54:32-0400      2072      720      Out of proc datastore is now inactive
2004-09-02      11:24:31-0400       728      188      AU received event of 1
2004-09-02      11:24:34-0400       728      188      Setting next AU detection timeout to 2004-09-02 15:24:32
2004-09-02      11:24:50-0400      2044      c38      Trying to make out of proc datastore active
2004-09-02      11:25:00-0400      2044      c38      Out of proc datastore is now active
2004-09-02      11:25:00-0400      2044      c38      Out of proc datastore is shutting down
2004-09-02      11:25:01-0400      3148      c44      Trying to make out of proc datastore active
2004-09-02      11:25:03-0400      2044      c38      Out of proc datastore is now inactive
2004-09-02      11:25:08-0400      3148      c44      Out of proc datastore is now active
2004-09-02      11:25:08-0400      3148      c44      Out of proc datastore is shutting down
2004-09-02      11:25:08-0400       728      188      Failed to get session from datastore: 80004002
2004-09-02      11:25:08-0400       728      188      Failed to Unserialize from data store: 80004002
2004-09-02      11:25:08-0400       728      188      AU Restart required....
2004-09-02      11:25:10-0400      3148      c44      Out of proc datastore is now inactive
2004-09-02      11:47:27-0400       728      2dc      Service received logoff notification
2004-09-02      11:47:28-0400       728      188      AU received event of 3
2004-09-02      11:47:28-0400       728      188      Received an event which can not be processed at this time
2004-09-02      11:47:37-0400       428      470      WUAutoUpdateAtShutdown failed, hr=80040154
2004-09-02      11:47:49-0400       728      2dc      Service received SERVICE_CONTROL_SHUTDOWN control
2004-09-02      11:47:49-0400       728      188      Exiting Service Main
2004-09-02      11:47:52-0400       728      188      WUAUENG ServiceMain exits. Exit code is 0x240001
2004-09-02      11:50:16-0400       732      64c      Service Main starts
2004-09-02      11:50:23-0400       732      64c      Using BatchFlushAge = 13675.
2004-09-02      11:50:23-0400       732      64c      Using SamplingValue = 403.
2004-09-02      11:50:23-0400       732      64c      Successfully loaded event namespace dictionary.
2004-09-02      11:50:26-0400       732      64c      Successfully loaded client event namespace descriptor.
2004-09-02      11:50:26-0400       732      64c      Successfully initialized local event logger. Events will be logged at C:\WINNT\SoftwareDistribution\ReportingEvents.log.
2004-09-02      11:50:26-0400       732      64c      Successfully initialized NT event logger.
2004-09-02      11:50:27-0400       732      64c      Successfully initialized event uploader 0.
2004-09-02      11:50:27-0400       732      64c      Successfully initialized event uploader 1.
2004-09-02      11:50:27-0400       732      64c      WU client with version 5.4.3790.2182 successfully initialized
2004-09-02      11:50:27-0400       732      64c      Service status is now SERVICE_RUNNING
2004-09-02      11:50:42-0400       732      2e0      Service received connect notification
2004-09-02      11:51:12-0400       732      64c      start delayed initialization of WU client
2004-09-02      11:51:39-0400      2284      8f0      Trying to make out of proc datastore active
2004-09-02      11:51:48-0400      2284      8f0      Out of proc datastore is now active
2004-09-02      11:51:48-0400      2284      8f0      Out of proc datastore is shutting down
2004-09-02      11:51:48-0400       732      64c      WU client failed to load persisted download calls with error 0x80004002
2004-09-02      11:51:48-0400       732      64c      Client Call Recorder finished delayed initialization
2004-09-02      11:51:51-0400      2284      8f0      Out of proc datastore is now inactive
2004-09-02      11:52:08-0400      2456      99c      Trying to make out of proc datastore active
2004-09-02      11:52:16-0400      2456      99c      Out of proc datastore is now active
2004-09-02      11:52:16-0400      2456      99c      Out of proc datastore is shutting down
2004-09-02      11:52:16-0400       732      64c      DM: GetSession failed with 0x80004002.
2004-09-02      11:52:17-0400       732      64c      Setting next AU detection timeout to 2004-09-02 15:52:16
2004-09-02      11:52:19-0400      2456      99c      Out of proc datastore is now inactive
2004-09-02      11:52:20-0400      2524      9e0      Trying to make out of proc datastore active
2004-09-02      11:52:23-0400      2524      9e0      Out of proc datastore is now active
2004-09-02      11:52:23-0400      2524      9e0      Out of proc datastore is shutting down
2004-09-02      11:52:24-0400      2608      a34      Trying to make out of proc datastore active
2004-09-02      11:52:24-0400      2524      9e0      Out of proc datastore is now inactive
2004-09-02      11:52:26-0400      2608      a34      Out of proc datastore is now active
2004-09-02      11:52:26-0400      2608      a34      Out of proc datastore is shutting down
2004-09-02      11:52:26-0400       732      64c      Failed to get session from datastore: 80004002
2004-09-02      11:52:26-0400       732      64c      Failed to Unserialize from data store: 80004002
2004-09-02      11:52:26-0400       732      64c      InitAUComponents Failed, will restart AU in 30 mins: 80004002
2004-09-02      11:52:26-0400       732      64c      AU Restart required....
2004-09-02      11:52:28-0400      2608      a34      Out of proc datastore is now inactive
2004-09-02      11:57:45-0400      3804      ee0      Checking for different Redirector at: http://download.windowsupdate.com/msdownload/update/v5/redir/wuredir.cab
2004-09-02      11:57:45-0400      3804      ee0      WinInet: Server file is not newer.  Skipping download.
2004-09-02      11:57:45-0400      3804      ee0      Successfully refreshed Redirector cab.
2004-09-02      11:57:46-0400      3804      ee0      WinInet: Server file is not newer.  Skipping download.
2004-09-02      11:57:47-0400      3804      ee0      WinInet: Download speed is 114081 bytes/sec
2004-09-02      11:57:47-0400      3804      ee0      WinInet: Successfully downloaded http://v5.windowsupdate.microsoft.com/SelfUpdate/AU/x86/XP/en/wusetup.cab to file C:\WINNT\SoftwareDistribution\WebSetup\wusetup.cab
2004-09-02      11:57:47-0400      3804      ee0      Loading inf file C:\WINNT\SoftwareDistribution\WebSetup\wusetup.inf
2004-09-02      11:57:47-0400      3804      ee0      Section name: cdm: Index: 0
2004-09-02      11:57:47-0400      3804      ee0      Section name: iuengine: Index: 1
2004-09-02      11:57:47-0400      3804      ee0      Section name: wuapi: Index: 2
2004-09-02      11:57:47-0400      3804      ee0      Section name: wuauclt: Index: 3
2004-09-02      11:57:47-0400      3804      ee0      Section name: wuauclt1: Index: 4
2004-09-02      11:57:47-0400      3804      ee0      Section name: wuaucpl: Index: 5
2004-09-02      11:57:47-0400      3804      ee0      Section name: wuaueng_WebSetup: Index: 6
2004-09-02      11:57:47-0400      3804      ee0      Section name: wuaueng1: Index: 7
2004-09-02      11:57:47-0400      3804      ee0      Section name: wuauserv_WebSetup: Index: 8
2004-09-02      11:57:47-0400      3804      ee0      Section name: wucltui: Index: 9
2004-09-02      11:57:47-0400      3804      ee0      Section name: wups: Index: 10
2004-09-02      11:57:47-0400      3804      ee0      Section name: winhttp: Index: 11
2004-09-02      11:57:47-0400      3804      ee0      Required Version for binary C:\WINNT\system32\cdm.dll is: 5,5,3790,2182
2004-09-02      11:57:48-0400      3804      ee0      Binary: C:\WINNT\system32\cdm.dll: Target version: 5.5.3790.2182 Required: 5.5.3790.2182
2004-09-02      11:57:48-0400      3804      ee0      Required Version for binary C:\WINNT\system32\iuengine.dll is: 5,4,3790,2182
2004-09-02      11:57:48-0400      3804      ee0      Binary: C:\WINNT\system32\iuengine.dll: Target version: 5.4.3790.2182 Required: 5.4.3790.2182
2004-09-02      11:57:48-0400      3804      ee0      Required Version for binary C:\WINNT\system32\wuapi.dll is: 5,4,3790,2182
2004-09-02      11:57:49-0400      3804      ee0      Binary: C:\WINNT\system32\wuapi.dll: Target version: 5.4.3790.2182 Required: 5.4.3790.2182
2004-09-02      11:57:49-0400      3804      ee0      Required Version for binary C:\WINNT\system32\wuauclt.exe is: 5,4,3790,2182
2004-09-02      11:57:49-0400      3804      ee0      Binary: C:\WINNT\system32\wuauclt.exe: Target version: 5.4.3790.2182 Required: 5.4.3790.2182
2004-09-02      11:57:49-0400      3804      ee0      Required Version for binary C:\WINNT\system32\wuauclt1.exe is: 5,4,3790,2182
2004-09-02      11:57:51-0400      3804      ee0      Binary: C:\WINNT\system32\wuauclt1.exe: Target version: 5.4.3790.2182 Required: 5.4.3790.2182
2004-09-02      11:57:51-0400      3804      ee0      Required Version for binary C:\WINNT\system32\wuaucpl.cpl is: 5,4,3790,2182
2004-09-02      11:57:51-0400      3804      ee0      Binary: C:\WINNT\system32\wuaucpl.cpl: Target version: 5.4.3790.2182 Required: 5.4.3790.2182
2004-09-02      11:57:51-0400      3804      ee0      Required Version for binary C:\WINNT\system32\wuaueng.dll is: 5,4,3790,2182
2004-09-02      11:57:51-0400      3804      ee0      Binary: C:\WINNT\system32\wuaueng.dll: Target version: 5.4.3790.2182 Required: 5.4.3790.2182
2004-09-02      11:57:51-0400      3804      ee0      Required Version for binary C:\WINNT\system32\wuaueng1.dll is: 5,4,3790,2182
2004-09-02      11:57:52-0400      3804      ee0      Binary: C:\WINNT\system32\wuaueng1.dll: Target version: 5.4.3790.2182 Required: 5.4.3790.2182
2004-09-02      11:57:52-0400      3804      ee0      Required Version for binary C:\WINNT\system32\wucltui.dll is: 5,4,3790,2182
2004-09-02      11:57:52-0400      3804      ee0      Binary: C:\WINNT\system32\wucltui.dll: Target version: 5.4.3790.2182 Required: 5.4.3790.2182
2004-09-02      11:57:52-0400      3804      ee0      Required Version for binary C:\WINNT\system32\wups.dll is: 5,4,3790,2182
2004-09-02      11:57:52-0400      3804      ee0      Binary: C:\WINNT\system32\wups.dll: Target version: 5.4.3790.2182 Required: 5.4.3790.2182
2004-09-02      11:57:52-0400      3804      ee0      CreateObject for Microsoft.Update.AutoUpdate failed: error 0x800401f3
2004-09-02      11:57:52-0400      3804      ee0      CreateObject for Microsoft.Update.SystemInfo failed: error 0x800401f3
2004-09-02      12:22:26-0400       732      64c      AU received event of 1
2004-09-02      12:22:27-0400       732      64c      Setting next AU detection timeout to 2004-09-02 16:22:27
2004-09-02      12:22:29-0400       932      334      Trying to make out of proc datastore active
2004-09-02      12:22:30-0400       932      334      Out of proc datastore is now active
2004-09-02      12:22:30-0400       932      334      Out of proc datastore is shutting down
2004-09-02      12:22:31-0400       180      720      Trying to make out of proc datastore active
2004-09-02      12:22:31-0400       180      720      Out of proc datastore is now active
2004-09-02      12:22:31-0400       180      720      Out of proc datastore is shutting down
2004-09-02      12:22:31-0400       732      64c      Failed to get session from datastore: 80004002
2004-09-02      12:22:31-0400       732      64c      Failed to Unserialize from data store: 80004002
2004-09-02      12:22:31-0400       732      64c      AU Restart required....
2004-09-02      12:22:32-0400       932      334      Out of proc datastore is now inactive
2004-09-02      12:22:33-0400       180      720      Out of proc datastore is now inactive
2004-09-02      12:45:59-0400      2528      9dc      Checking for different Redirector at: http://download.windowsupdate.com/msdownload/update/v5/redir/wuredir.cab
2004-09-02      12:45:59-0400      2528      9dc      WinInet: Server file is not newer.  Skipping download.
2004-09-02      12:45:59-0400      2528      9dc      Successfully refreshed Redirector cab.
2004-09-02      12:46:00-0400      2528      9dc      WinInet: Server file is not newer.  Skipping download.
2004-09-02      12:46:01-0400      2528      9dc      WinInet: Download speed is 60073 bytes/sec
2004-09-02      12:46:01-0400      2528      9dc      WinInet: Successfully downloaded http://v5.windowsupdate.microsoft.com/SelfUpdate/AU/x86/XP/en/wusetup.cab to file C:\WINNT\SoftwareDistribution\WebSetup\wusetup.cab
2004-09-02      12:46:01-0400      2528      9dc      Loading inf file C:\WINNT\SoftwareDistribution\WebSetup\wusetup.inf
2004-09-02      12:46:01-0400      2528      9dc      Section name: cdm: Index: 0
2004-09-02      12:46:01-0400      2528      9dc      Section name: iuengine: Index: 1
2004-09-02      12:46:01-0400      2528      9dc      Section name: wuapi: Index: 2
2004-09-02      12:46:01-0400      2528      9dc      Section name: wuauclt: Index: 3
2004-09-02      12:46:01-0400      2528      9dc      Section name: wuauclt1: Index: 4
2004-09-02      12:46:01-0400      2528      9dc      Section name: wuaucpl: Index: 5
2004-09-02      12:46:01-0400      2528      9dc      Section name: wuaueng_WebSetup: Index: 6
2004-09-02      12:46:01-0400      2528      9dc      Section name: wuaueng1: Index: 7
2004-09-02      12:46:01-0400      2528      9dc      Section name: wuauserv_WebSetup: Index: 8
2004-09-02      12:46:01-0400      2528      9dc      Section name: wucltui: Index: 9
2004-09-02      12:46:01-0400      2528      9dc      Section name: wups: Index: 10
2004-09-02      12:46:01-0400      2528      9dc      Section name: winhttp: Index: 11
2004-09-02      12:46:01-0400      2528      9dc      Required Version for binary C:\WINNT\system32\cdm.dll is: 5,5,3790,2182
2004-09-02      12:46:01-0400      2528      9dc      Binary: C:\WINNT\system32\cdm.dll: Target version: 5.5.3790.2182 Required: 5.5.3790.2182
2004-09-02      12:46:01-0400      2528      9dc      Required Version for binary C:\WINNT\system32\iuengine.dll is: 5,4,3790,2182
2004-09-02      12:46:01-0400      2528      9dc      Binary: C:\WINNT\system32\iuengine.dll: Target version: 5.4.3790.2182 Required: 5.4.3790.2182
2004-09-02      12:46:01-0400      2528      9dc      Required Version for binary C:\WINNT\system32\wuapi.dll is: 5,4,3790,2182
2004-09-02      12:46:01-0400      2528      9dc      Binary: C:\WINNT\system32\wuapi.dll: Target version: 5.4.3790.2182 Required: 5.4.3790.2182
2004-09-02      12:46:01-0400      2528      9dc      Required Version for binary C:\WINNT\system32\wuauclt.exe is: 5,4,3790,2182
2004-09-02      12:46:01-0400      2528      9dc      Binary: C:\WINNT\system32\wuauclt.exe: Target version: 5.4.3790.2182 Required: 5.4.3790.2182
2004-09-02      12:46:01-0400      2528      9dc      Required Version for binary C:\WINNT\system32\wuauclt1.exe is: 5,4,3790,2182
2004-09-02      12:46:01-0400      2528      9dc      Binary: C:\WINNT\system32\wuauclt1.exe: Target version: 5.4.3790.2182 Required: 5.4.3790.2182
2004-09-02      12:46:01-0400      2528      9dc      Required Version for binary C:\WINNT\system32\wuaucpl.cpl is: 5,4,3790,2182
2004-09-02      12:46:01-0400      2528      9dc      Binary: C:\WINNT\system32\wuaucpl.cpl: Target version: 5.4.3790.2182 Required: 5.4.3790.2182
2004-09-02      12:46:01-0400      2528      9dc      Required Version for binary C:\WINNT\system32\wuaueng.dll is: 5,4,3790,2182
2004-09-02      12:46:01-0400      2528      9dc      Binary: C:\WINNT\system32\wuaueng.dll: Target version: 5.4.3790.2182 Required: 5.4.3790.2182
2004-09-02      12:46:01-0400      2528      9dc      Required Version for binary C:\WINNT\system32\wuaueng1.dll is: 5,4,3790,2182
2004-09-02      12:46:01-0400      2528      9dc      Binary: C:\WINNT\system32\wuaueng1.dll: Target version: 5.4.3790.2182 Required: 5.4.3790.2182
2004-09-02      12:46:01-0400      2528      9dc      Required Version for binary C:\WINNT\system32\wucltui.dll is: 5,4,3790,2182
2004-09-02      12:46:01-0400      2528      9dc      Binary: C:\WINNT\system32\wucltui.dll: Target version: 5.4.3790.2182 Required: 5.4.3790.2182
2004-09-02      12:46:01-0400      2528      9dc      Required Version for binary C:\WINNT\system32\wups.dll is: 5,4,3790,2182
2004-09-02      12:46:01-0400      2528      9dc      Binary: C:\WINNT\system32\wups.dll: Target version: 5.4.3790.2182 Required: 5.4.3790.2182
2004-09-02      12:46:01-0400      2528      9dc      CreateObject for Microsoft.Update.AutoUpdate failed: error 0x800401f3
2004-09-02      12:46:01-0400      2528      9dc      CreateObject for Microsoft.Update.SystemInfo failed: error 0x800401f3
2004-09-02      12:52:32-0400       732      64c      AU received event of 1
2004-09-02      12:52:32-0400       732      64c      Setting next AU detection timeout to 2004-09-02 16:52:32
2004-09-02      12:52:35-0400      2768      acc      Trying to make out of proc datastore active
2004-09-02      12:52:37-0400      2768      acc      Out of proc datastore is now active
2004-09-02      12:52:37-0400      2768      acc      Out of proc datastore is shutting down
2004-09-02      12:52:37-0400       972      af0      Trying to make out of proc datastore active
2004-09-02      12:52:38-0400       972      af0      Out of proc datastore is now active
2004-09-02      12:52:38-0400       972      af0      Out of proc datastore is shutting down
2004-09-02      12:52:38-0400       732      64c      Failed to get session from datastore: 80004002
2004-09-02      12:52:38-0400       732      64c      Failed to Unserialize from data store: 80004002
2004-09-02      12:52:38-0400       732      64c      AU Restart required....
2004-09-02      12:52:38-0400      2768      acc      Out of proc datastore is now inactive
2004-09-02      12:52:39-0400       972      af0      Out of proc datastore is now inactive
2004-09-02      13:22:38-0400       732      64c      AU received event of 1
2004-09-02      13:22:38-0400       732      64c      Setting next AU detection timeout to 2004-09-02 17:22:38
2004-09-02      13:22:38-0400      3064      b7c      Trying to make out of proc datastore active
2004-09-02      13:22:39-0400      3064      b7c      Out of proc datastore is now active
2004-09-02      13:22:39-0400      3064      b7c      Out of proc datastore is shutting down
2004-09-02      13:22:40-0400      3240      c8c      Trying to make out of proc datastore active
2004-09-02      13:22:40-0400      3064      b7c      Out of proc datastore is now inactive
2004-09-02      13:22:42-0400      3240      c8c      Out of proc datastore is now active
2004-09-02      13:22:42-0400      3240      c8c      Out of proc datastore is shutting down
2004-09-02      13:22:42-0400       732      64c      Failed to get session from datastore: 80004002
2004-09-02      13:22:42-0400       732      64c      Failed to Unserialize from data store: 80004002
2004-09-02      13:22:42-0400       732      64c      AU Restart required....
2004-09-02      13:22:43-0400      3240      c8c      Out of proc datastore is now inactive
2004-09-02      13:52:42-0400       732      64c      AU received event of 1
2004-09-02      13:52:42-0400       732      64c      Setting next AU detection timeout to 2004-09-02 17:52:42
2004-09-02      13:52:42-0400      3532      dd0      Trying to make out of proc datastore active
2004-09-02      13:52:43-0400      3532      dd0      Out of proc datastore is now active
2004-09-02      13:52:43-0400      3532      dd0      Out of proc datastore is shutting down
2004-09-02      13:52:43-0400      3692      e78      Trying to make out of proc datastore active
2004-09-02      13:52:44-0400      3692      e78      Out of proc datastore is now active
2004-09-02      13:52:44-0400      3692      e78      Out of proc datastore is shutting down
2004-09-02      13:52:44-0400       732      64c      Failed to get session from datastore: 80004002
2004-09-02      13:52:44-0400       732      64c      Failed to Unserialize from data store: 80004002
2004-09-02      13:52:44-0400       732      64c      AU Restart required....
2004-09-02      13:52:44-0400      3532      dd0      Out of proc datastore is now inactive
2004-09-02      13:52:45-0400      3692      e78      Out of proc datastore is now inactive
0
Comment
Question by:mtk4590
  • 4
  • 3
  • 2
  • +5
16 Comments
 
LVL 65

Assisted Solution

by:SheharyaarSaahil
SheharyaarSaahil earned 500 total points
Comment Utility
Hello mtk4590 =)

Running any firewall..... tried disabling it ??
or empty the Temporary Internet Files and Cookies of IE and Restore Defaults in Tools>Internet Options !!
0
 
LVL 20

Expert Comment

by:DVation191
Comment Utility
do you have any security software installed like Norton Internet Security or McAfee's security suite? i'd try uninstalling them
0
 
LVL 4

Expert Comment

by:cyrnel
Comment Utility
If you have ad-blocking software, disable it for the update.

I've found several programs that act as proxies (defined in Internet Options->Connections) interfere with windows update, even when you use their "disable" feature. Unchecking the "Use a proxy..." box fixed the problem.
0
 
LVL 65

Accepted Solution

by:
SheharyaarSaahil earned 500 total points
Comment Utility
Also try this.....

goto Start>Run>cmd
type these lines, hitting Enter after each line.

REGSVR32 C:\WINDOWS\system32\wuapi.dll
REGSVR32 C:\WINDOWS\system32\wuaueng.dll
REGSVR32 C:\WINDOWS\system32\atl.dll
REGSVR32 C:\WINDOWS\system32\wucltui.dll
REGSVR32 C:\WINDOWS\system32\wups.dll
Exit

Restart and now check ??
0
 
LVL 1

Expert Comment

by:grtmoby
Comment Utility
make sure that the pop-up blocker is not on (or add microsoft as a trusty poper). you can disable this feature from
IE--->Tools----> Pop-up Blocker.
HTH :)
0
 
LVL 8

Expert Comment

by:pjcrooks2000
Comment Utility
Make sure you don't still have an update icon next to your clock and it just needs to be installed, silly but possible!
0
 

Author Comment

by:mtk4590
Comment Utility
Thanks for your responses, unfortunately after I uninstalled Norton internet security 2003 and rebooted, it got worse.  I believe Active X has been uninstalled or blocked from functioning; now when I go to Windows Update, I get a blank page.  I tried removing five different viruses on this PC, so they could have been the main problem.  So thanks again, but I am going to format and reload.
0
Highfive Gives IT Their Time Back

Highfive is so simple that setting up every meeting room takes just minutes and every employee will be able to start or join a call from any room with ease. Never be called into a meeting just to get it started again. This is how video conferencing should work!

 

Expert Comment

by:NuX2
Comment Utility
it dose kinda sound like an activex issue, or possibly a security issue as, I looked at the log and windows update downloaded all the files correctly and at a decent speed, but was unable to create object(s) which makes me wonder about activex or a security issue..  I hope you didn't format already, cause I believe you are able to recover from this problem ~ good luck!
0
 
LVL 65

Expert Comment

by:SheharyaarSaahil
Comment Utility
>> So thanks again, but I am going to format and reload.

there are many more cases where Norton is creating problems with the New V5 windows updates installsheild =\
Norton requires to update itself !!
0
 
LVL 8

Expert Comment

by:pjcrooks2000
Comment Utility
Does sound like it will be easier to re install yes looking at the problesm with it!  Do you need any help with that at all?  I would imagine your could do it with your hands tied :)
0
 

Author Comment

by:mtk4590
Comment Utility
Thanks everyone but I had to do what I had to do.  I deep sixed it and reloaded.
0
 
LVL 8

Expert Comment

by:pjcrooks2000
Comment Utility
Good job it seems like the worst thing to do sometimes and sounds most drastic but when you start to count all the time you waste trying to fix niggley problems you may as well have reloaded it :)
0
 
LVL 4

Expert Comment

by:cyrnel
Comment Utility
I like burning a DVD of the partition right after the worst set of installs/reboots on a system for other users. Nero, ghost, whatever. Keep it sleeved & taped inside the computer. Saves my butt regularly after the kids or a less than graceful worker sets off the mass-demo-download-n-install bomb.
0
 
LVL 8

Expert Comment

by:pjcrooks2000
Comment Utility
yeah me too its a good idea to do what cyrnel says as this may save you a lot of time if you have have to come back and re do it all again!  :)
0
 

Expert Comment

by:mirage084
Comment Utility
Well I guess I reached late ....lol
0

Featured Post

How to improve team productivity

Quip adds documents, spreadsheets, and tasklists to your Slack experience
- Elevate ideas to Quip docs
- Share Quip docs in Slack
- Get notified of changes to your docs
- Available on iOS/Android/Desktop/Web
- Online/Offline

Join & Write a Comment

I don't know if many of you have made the great mistake of using the Cisco Thin Client model with the management software VXC. If you have then you are probably more then familiar with the incredibly clunky interface, the numerous work arounds, and …
Windows 10 is here and for most admins this means frustration and challenges getting that first working Windows 10 image. As in my previous sysprep articles, I've put together a simple help guide to get you through this process. The aim is to achiev…
This demo shows you how to set up the containerized NetScaler CPX with NetScaler Management and Analytics System in a non-routable Mesos/Marathon environment for use with Micro-Services applications.
This video explains how to create simple products associated to Magento configurable product and offers fast way of their generation with Store Manager for Magento tool.

763 members asked questions and received personalized solutions in the past 7 days.

Join the community of 500,000 technology professionals and ask your questions.

Join & Ask a Question

Need Help in Real-Time?

Connect with top rated Experts

10 Experts available now in Live!

Get 1:1 Help Now